sensor_id;sensor_type;location;lat;lon;timestamp;P1;durP1;ratioP1;P2;durP2;ratioP2
9559;SDS011;4818;50.860;4.648;2022-12-29T00:00:15;0.50;;;0.20;;
9559;SDS011;4818;50.860;4.648;2022-12-29T00:02:50;3.00;;;0.30;;
9559;SDS011;4818;50.860;4.648;2022-12-29T00:05:20;2.65;;;0.52;;
9559;SDS011;4818;50.860;4.648;2022-12-29T00:07:58;2.38;;;0.30;;
9559;SDS011;4818;50.860;4.648;2022-12-29T00:10:34;0.73;;;0.45;;
9559;SDS011;4818;50.860;4.648;2022-12-29T00:13:09;1.65;;;0.20;;
9559;SDS011;4818;50.860;4.648;2022-12-29T00:15:57;1.00;;;0.35;;
9559;SDS011;4818;50.860;4.648;2022-12-29T00:18:24;0.45;;;0.10;;
9559;SDS011;4818;50.860;4.648;2022-12-29T00:20:54;4.70;;;0.30;;
9559;SDS011;4818;50.860;4.648;2022-12-29T00:23:44;1.15;;;0.20;;
9559;SDS011;4818;50.860;4.648;2022-12-29T00:26:30;1.40;;;0.30;;
9559;SDS011;4818;50.860;4.648;2022-12-29T00:29:15;0.70;;;0.20;;
9559;SDS011;4818;50.860;4.648;2022-12-29T00:32:01;0.52;;;0.10;;
9559;SDS011;4818;50.860;4.648;2022-12-29T00:34:49;0.70;;;0.00;;
9559;SDS011;4818;50.860;4.648;2022-12-29T00:37:41;0.85;;;0.10;;
9559;SDS011;4818;50.860;4.648;2022-12-29T00:40:36;2.15;;;0.10;;
9559;SDS011;4818;50.860;4.648;2022-12-29T00:43:39;2.30;;;0.10;;
9559;SDS011;4818;50.860;4.648;2022-12-29T00:46:33;1.08;;;0.17;;
9559;SDS011;4818;50.860;4.648;2022-12-29T00:49:00;0.63;;;0.10;;
9559;SDS011;4818;50.860;4.648;2022-12-29T00:51:48;3.13;;;0.17;;
9559;SDS011;4818;50.860;4.648;2022-12-29T00:54:16;2.83;;;0.20;;
9559;SDS011;4818;50.860;4.648;2022-12-29T00:59:36;0.98;;;0.10;;
9559;SDS011;4818;50.860;4.648;2022-12-29T01:02:12;0.80;;;0.10;;
9559;SDS011;4818;50.860;4.648;2022-12-29T01:04:43;2.78;;;0.30;;
9559;SDS011;4818;50.860;4.648;2022-12-29T01:07:10;2.03;;;0.20;;
9559;SDS011;4818;50.860;4.648;2022-12-29T01:09:36;1.65;;;0.20;;
9559;SDS011;4818;50.860;4.648;2022-12-29T01:12:28;3.22;;;0.20;;
9559;SDS011;4818;50.860;4.648;2022-12-29T01:15:08;2.80;;;0.10;;
9559;SDS011;4818;50.860;4.648;2022-12-29T01:17:38;3.67;;;0.20;;
9559;SDS011;4818;50.860;4.648;2022-12-29T01:20:07;5.10;;;0.20;;
9559;SDS011;4818;50.860;4.648;2022-12-29T01:22:34;4.35;;;0.20;;
9559;SDS011;4818;50.860;4.648;2022-12-29T01:25:10;2.28;;;0.30;;
9559;SDS011;4818;50.860;4.648;2022-12-29T01:27:39;1.67;;;0.20;;
9559;SDS011;4818;50.860;4.648;2022-12-29T01:30:09;1.83;;;0.30;;
9559;SDS011;4818;50.860;4.648;2022-12-29T01:32:38;1.95;;;0.32;;
9559;SDS011;4818;50.860;4.648;2022-12-29T01:35:08;3.33;;;0.40;;
9559;SDS011;4818;50.860;4.648;2022-12-29T01:37:39;0.80;;;0.20;;
9559;SDS011;4818;50.860;4.648;2022-12-29T01:40:14;3.38;;;0.30;;
9559;SDS011;4818;50.860;4.648;2022-12-29T01:42:58;0.90;;;0.20;;
9559;SDS011;4818;50.860;4.648;2022-12-29T01:45:27;1.95;;;0.20;;
9559;SDS011;4818;50.860;4.648;2022-12-29T01:48:03;4.35;;;0.40;;
9559;SDS011;4818;50.860;4.648;2022-12-29T01:50:31;4.43;;;0.80;;
9559;SDS011;4818;50.860;4.648;2022-12-29T01:55:29;6.00;;;0.68;;
9559;SDS011;4818;50.860;4.648;2022-12-29T01:58:00;4.30;;;0.40;;
9559;SDS011;4818;50.860;4.648;2022-12-29T02:00:34;2.88;;;0.40;;
9559;SDS011;4818;50.860;4.648;2022-12-29T02:03:12;2.65;;;0.30;;
9559;SDS011;4818;50.860;4.648;2022-12-29T02:05:58;3.65;;;0.98;;
9559;SDS011;4818;50.860;4.648;2022-12-29T02:08:36;1.48;;;0.45;;
9559;SDS011;4818;50.860;4.648;2022-12-29T02:11:04;3.55;;;0.20;;
9559;SDS011;4818;50.860;4.648;2022-12-29T02:13:46;1.95;;;0.20;;
9559;SDS011;4818;50.860;4.648;2022-12-29T02:16:26;1.83;;;0.20;;
9559;SDS011;4818;50.860;4.648;2022-12-29T02:22:14;3.83;;;0.10;;
9559;SDS011;4818;50.860;4.648;2022-12-29T02:38:39;7.45;;;0.20;;
9559;SDS011;4818;50.860;4.648;2022-12-29T02:41:31;1.20;;;0.20;;
9559;SDS011;4818;50.860;4.648;2022-12-29T02:44:24;2.47;;;0.30;;
9559;SDS011;4818;50.860;4.648;2022-12-29T02:52:50;2.78;;;0.20;;
9559;SDS011;4818;50.860;4.648;2022-12-29T02:55:26;0.93;;;0.15;;
9559;SDS011;4818;50.860;4.648;2022-12-29T03:00:52;1.75;;;0.10;;
9559;SDS011;4818;50.860;4.648;2022-12-29T03:03:26;3.72;;;0.10;;
9559;SDS011;4818;50.860;4.648;2022-12-29T03:06:16;0.80;;;0.00;;
9559;SDS011;4818;50.860;4.648;2022-12-29T03:14:28;1.17;;;0.00;;
9559;SDS011;4818;50.860;4.648;2022-12-29T03:20:12;3.50;;;0.10;;
9559;SDS011;4818;50.860;4.648;2022-12-29T03:22:43;3.22;;;0.10;;
9559;SDS011;4818;50.860;4.648;2022-12-29T03:25:37;1.98;;;0.30;;
9559;SDS011;4818;50.860;4.648;2022-12-29T03:28:31;2.15;;;0.10;;
9559;SDS011;4818;50.860;4.648;2022-12-29T03:31:36;0.30;;;0.00;;
9559;SDS011;4818;50.860;4.648;2022-12-29T03:34:27;1.40;;;0.00;;
9559;SDS011;4818;50.860;4.648;2022-12-29T03:36:58;1.75;;;0.10;;
9559;SDS011;4818;50.860;4.648;2022-12-29T03:42:47;1.58;;;0.00;;
9559;SDS011;4818;50.860;4.648;2022-12-29T03:45:22;3.38;;;0.10;;
9559;SDS011;4818;50.860;4.648;2022-12-29T03:48:15;3.03;;;0.85;;
9559;SDS011;4818;50.860;4.648;2022-12-29T03:50:52;3.13;;;0.20;;
9559;SDS011;4818;50.860;4.648;2022-12-29T03:53:28;2.78;;;0.50;;
9559;SDS011;4818;50.860;4.648;2022-12-29T03:56:06;5.18;;;0.88;;
9559;SDS011;4818;50.860;4.648;2022-12-29T03:58:45;4.07;;;0.17;;
9559;SDS011;4818;50.860;4.648;2022-12-29T04:01:38;4.25;;;0.60;;
9559;SDS011;4818;50.860;4.648;2022-12-29T04:04:07;2.72;;;0.20;;
9559;SDS011;4818;50.860;4.648;2022-12-29T04:06:58;4.50;;;0.20;;
9559;SDS011;4818;50.860;4.648;2022-12-29T04:09:51;4.82;;;1.00;;
9559;SDS011;4818;50.860;4.648;2022-12-29T04:12:18;5.47;;;0.70;;
9559;SDS011;4818;50.860;4.648;2022-12-29T04:14:51;9.50;;;0.68;;
9559;SDS011;4818;50.860;4.648;2022-12-29T04:17:52;4.40;;;0.10;;
9559;SDS011;4818;50.860;4.648;2022-12-29T04:20:48;2.42;;;0.25;;
9559;SDS011;4818;50.860;4.648;2022-12-29T04:23:37;1.92;;;0.10;;
9559;SDS011;4818;50.860;4.648;2022-12-29T04:26:30;2.38;;;0.25;;
9559;SDS011;4818;50.860;4.648;2022-12-29T04:29:01;2.17;;;0.20;;
9559;SDS011;4818;50.860;4.648;2022-12-29T04:34:23;4.53;;;0.17;;
9559;SDS011;4818;50.860;4.648;2022-12-29T04:37:15;2.20;;;0.10;;
9559;SDS011;4818;50.860;4.648;2022-12-29T04:40:17;3.88;;;0.38;;
9559;SDS011;4818;50.860;4.648;2022-12-29T04:43:01;1.17;;;0.10;;
9559;SDS011;4818;50.860;4.648;2022-12-29T04:46:19;2.92;;;0.20;;
9559;SDS011;4818;50.860;4.648;2022-12-29T04:48:49;4.70;;;0.82;;
9559;SDS011;4818;50.860;4.648;2022-12-29T04:51:51;1.63;;;0.20;;
9559;SDS011;4818;50.860;4.648;2022-12-29T04:54:23;4.25;;;0.20;;
9559;SDS011;4818;50.860;4.648;2022-12-29T04:57:22;4.32;;;0.32;;
9559;SDS011;4818;50.860;4.648;2022-12-29T04:59:54;5.78;;;0.30;;
9559;SDS011;4818;50.860;4.648;2022-12-29T05:02:54;2.85;;;0.10;;
9559;SDS011;4818;50.860;4.648;2022-12-29T05:05:23;3.15;;;0.20;;
9559;SDS011;4818;50.860;4.648;2022-12-29T05:14:48;6.07;;;0.52;;
9559;SDS011;4818;50.860;4.648;2022-12-29T05:17:42;3.97;;;0.20;;
9559;SDS011;4818;50.860;4.648;2022-12-29T05:20:23;1.17;;;0.10;;
9559;SDS011;4818;50.860;4.648;2022-12-29T05:22:59;5.18;;;0.20;;
9559;SDS011;4818;50.860;4.648;2022-12-29T05:25:25;4.57;;;0.25;;
9559;SDS011;4818;50.860;4.648;2022-12-29T05:27:52;4.65;;;0.20;;
9559;SDS011;4818;50.860;4.648;2022-12-29T05:30:18;2.80;;;0.20;;
9559;SDS011;4818;50.860;4.648;2022-12-29T05:32:45;3.70;;;0.20;;
9559;SDS011;4818;50.860;4.648;2022-12-29T05:35:14;6.43;;;0.73;;
9559;SDS011;4818;50.860;4.648;2022-12-29T05:37:40;3.95;;;0.20;;
9559;SDS011;4818;50.860;4.648;2022-12-29T05:40:07;6.38;;;0.28;;
9559;SDS011;4818;50.860;4.648;2022-12-29T05:42:33;3.08;;;0.30;;
9559;SDS011;4818;50.860;4.648;2022-12-29T05:45:00;2.33;;;0.30;;
9559;SDS011;4818;50.860;4.648;2022-12-29T05:47:29;4.32;;;0.30;;
9559;SDS011;4818;50.860;4.648;2022-12-29T05:49:56;3.20;;;0.43;;
9559;SDS011;4818;50.860;4.648;2022-12-29T05:52:25;10.25;;;0.40;;
9559;SDS011;4818;50.860;4.648;2022-12-29T05:54:52;5.85;;;0.25;;
9559;SDS011;4818;50.860;4.648;2022-12-29T05:57:21;5.13;;;0.50;;
9559;SDS011;4818;50.860;4.648;2022-12-29T05:59:50;2.05;;;0.20;;
9559;SDS011;4818;50.860;4.648;2022-12-29T06:02:26;8.95;;;0.80;;
9559;SDS011;4818;50.860;4.648;2022-12-29T06:05:01;5.18;;;0.50;;
9559;SDS011;4818;50.860;4.648;2022-12-29T06:07:49;10.00;;;0.52;;
9559;SDS011;4818;50.860;4.648;2022-12-29T06:10:23;5.85;;;0.40;;
9559;SDS011;4818;50.860;4.648;2022-12-29T06:12:50;7.93;;;0.52;;
9559;SDS011;4818;50.860;4.648;2022-12-29T06:18:39;12.43;;;0.30;;
9559;SDS011;4818;50.860;4.648;2022-12-29T06:21:07;5.80;;;0.52;;
9559;SDS011;4818;50.860;4.648;2022-12-29T06:23:36;7.75;;;0.40;;
9559;SDS011;4818;50.860;4.648;2022-12-29T06:26:05;7.00;;;0.22;;
9559;SDS011;4818;50.860;4.648;2022-12-29T06:29:12;9.95;;;0.65;;
9559;SDS011;4818;50.860;4.648;2022-12-29T06:31:59;7.78;;;0.32;;
9559;SDS011;4818;50.860;4.648;2022-12-29T06:37:53;2.92;;;0.30;;
9559;SDS011;4818;50.860;4.648;2022-12-29T06:40:25;3.75;;;0.40;;
9559;SDS011;4818;50.860;4.648;2022-12-29T06:42:51;11.30;;;0.35;;
9559;SDS011;4818;50.860;4.648;2022-12-29T06:45:18;8.60;;;0.40;;
9559;SDS011;4818;50.860;4.648;2022-12-29T06:48:08;3.88;;;0.30;;
9559;SDS011;4818;50.860;4.648;2022-12-29T06:50:44;12.18;;;0.30;;
9559;SDS011;4818;50.860;4.648;2022-12-29T06:53:25;7.78;;;0.40;;
9559;SDS011;4818;50.860;4.648;2022-12-29T06:56:12;9.15;;;0.73;;
9559;SDS011;4818;50.860;4.648;2022-12-29T06:58:48;3.75;;;0.30;;
9559;SDS011;4818;50.860;4.648;2022-12-29T07:06:53;10.77;;;0.57;;
9559;SDS011;4818;50.860;4.648;2022-12-29T07:09:22;4.47;;;0.40;;
9559;SDS011;4818;50.860;4.648;2022-12-29T07:11:48;4.20;;;0.20;;
9559;SDS011;4818;50.860;4.648;2022-12-29T07:14:15;8.32;;;0.35;;
9559;SDS011;4818;50.860;4.648;2022-12-29T07:20:08;3.83;;;0.47;;
9559;SDS011;4818;50.860;4.648;2022-12-29T07:25:02;4.38;;;0.32;;
9559;SDS011;4818;50.860;4.648;2022-12-29T07:27:31;8.88;;;0.43;;
9559;SDS011;4818;50.860;4.648;2022-12-29T07:29:58;8.00;;;1.00;;
9559;SDS011;4818;50.860;4.648;2022-12-29T07:32:36;6.03;;;0.57;;
9559;SDS011;4818;50.860;4.648;2022-12-29T07:35:08;11.68;;;0.77;;
9559;SDS011;4818;50.860;4.648;2022-12-29T07:37:38;10.32;;;1.80;;
9559;SDS011;4818;50.860;4.648;2022-12-29T07:40:13;7.05;;;0.85;;
9559;SDS011;4818;50.860;4.648;2022-12-29T07:43:01;10.88;;;0.60;;
9559;SDS011;4818;50.860;4.648;2022-12-29T07:45:28;6.97;;;0.43;;
9559;SDS011;4818;50.860;4.648;2022-12-29T07:48:15;5.07;;;0.22;;
9559;SDS011;4818;50.860;4.648;2022-12-29T07:51:01;3.10;;;0.88;;
9559;SDS011;4818;50.860;4.648;2022-12-29T07:53:52;8.95;;;0.40;;
9559;SDS011;4818;50.860;4.648;2022-12-29T07:56:44;7.28;;;1.00;;
9559;SDS011;4818;50.860;4.648;2022-12-29T07:59:32;3.00;;;0.40;;
9559;SDS011;4818;50.860;4.648;2022-12-29T08:04:41;8.73;;;0.65;;
9559;SDS011;4818;50.860;4.648;2022-12-29T08:07:10;11.07;;;0.50;;
9559;SDS011;4818;50.860;4.648;2022-12-29T08:09:36;4.40;;;0.45;;
9559;SDS011;4818;50.860;4.648;2022-12-29T08:12:08;9.32;;;1.08;;
9559;SDS011;4818;50.860;4.648;2022-12-29T08:14:34;7.72;;;0.57;;
9559;SDS011;4818;50.860;4.648;2022-12-29T08:17:07;9.00;;;0.50;;
9559;SDS011;4818;50.860;4.648;2022-12-29T08:19:39;9.60;;;0.63;;
9559;SDS011;4818;50.860;4.648;2022-12-29T08:22:07;9.32;;;0.30;;
9559;SDS011;4818;50.860;4.648;2022-12-29T08:24:37;6.75;;;0.32;;
9559;SDS011;4818;50.860;4.648;2022-12-29T08:29:51;10.73;;;0.47;;
9559;SDS011;4818;50.860;4.648;2022-12-29T08:32:18;9.00;;;1.00;;
9559;SDS011;4818;50.860;4.648;2022-12-29T08:34:56;9.00;;;0.30;;
9559;SDS011;4818;50.860;4.648;2022-12-29T08:37:28;7.97;;;0.40;;
9559;SDS011;4818;50.860;4.648;2022-12-29T08:39:57;10.82;;;0.98;;
9559;SDS011;4818;50.860;4.648;2022-12-29T08:42:39;5.35;;;0.75;;
9559;SDS011;4818;50.860;4.648;2022-12-29T08:48:10;5.13;;;0.65;;
9559;SDS011;4818;50.860;4.648;2022-12-29T08:50:40;5.80;;;0.43;;
9559;SDS011;4818;50.860;4.648;2022-12-29T08:53:14;7.93;;;0.60;;
9559;SDS011;4818;50.860;4.648;2022-12-29T08:55:40;6.80;;;0.77;;
9559;SDS011;4818;50.860;4.648;2022-12-29T08:58:07;15.40;;;0.77;;
9559;SDS011;4818;50.860;4.648;2022-12-29T09:00:48;6.47;;;0.40;;
9559;SDS011;4818;50.860;4.648;2022-12-29T09:03:26;5.93;;;0.77;;
9559;SDS011;4818;50.860;4.648;2022-12-29T09:06:02;8.93;;;0.70;;
9559;SDS011;4818;50.860;4.648;2022-12-29T09:08:31;12.45;;;0.70;;
9559;SDS011;4818;50.860;4.648;2022-12-29T09:11:11;4.88;;;0.40;;
9559;SDS011;4818;50.860;4.648;2022-12-29T09:13:59;5.93;;;0.40;;
9559;SDS011;4818;50.860;4.648;2022-12-29T09:16:25;6.63;;;0.40;;
9559;SDS011;4818;50.860;4.648;2022-12-29T09:18:57;9.15;;;0.93;;
9559;SDS011;4818;50.860;4.648;2022-12-29T09:21:32;6.05;;;0.55;;
9559;SDS011;4818;50.860;4.648;2022-12-29T09:24:01;13.65;;;1.27;;
9559;SDS011;4818;50.860;4.648;2022-12-29T09:26:37;9.00;;;1.02;;
9559;SDS011;4818;50.860;4.648;2022-12-29T09:29:07;8.68;;;0.40;;
9559;SDS011;4818;50.860;4.648;2022-12-29T09:31:39;8.98;;;0.75;;
9559;SDS011;4818;50.860;4.648;2022-12-29T09:34:11;9.80;;;0.75;;
9559;SDS011;4818;50.860;4.648;2022-12-29T09:36:38;9.48;;;0.60;;
9559;SDS011;4818;50.860;4.648;2022-12-29T09:39:04;6.57;;;0.68;;
9559;SDS011;4818;50.860;4.648;2022-12-29T09:42:36;10.50;;;1.52;;
9559;SDS011;4818;50.860;4.648;2022-12-29T09:47:21;8.23;;;0.75;;
9559;SDS011;4818;50.860;4.648;2022-12-29T09:49:52;4.90;;;0.30;;
9559;SDS011;4818;50.860;4.648;2022-12-29T09:52:21;5.78;;;0.60;;
9559;SDS011;4818;50.860;4.648;2022-12-29T09:55:05;8.13;;;1.10;;
9559;SDS011;4818;50.860;4.648;2022-12-29T10:00:22;6.40;;;0.50;;
9559;SDS011;4818;50.860;4.648;2022-12-29T10:02:56;12.65;;;1.15;;
9559;SDS011;4818;50.860;4.648;2022-12-29T10:05:35;4.15;;;0.77;;
9559;SDS011;4818;50.860;4.648;2022-12-29T10:08:41;5.25;;;0.40;;
9559;SDS011;4818;50.860;4.648;2022-12-29T10:11:35;8.65;;;0.70;;
9559;SDS011;4818;50.860;4.648;2022-12-29T10:20:03;8.05;;;0.60;;
9559;SDS011;4818;50.860;4.648;2022-12-29T10:22:17;12.77;;;0.68;;
9559;SDS011;4818;50.860;4.648;2022-12-29T10:24:53;7.10;;;0.80;;
9559;SDS011;4818;50.860;4.648;2022-12-29T10:27:30;8.30;;;0.70;;
9559;SDS011;4818;50.860;4.648;2022-12-29T10:30:01;6.55;;;0.88;;
9559;SDS011;4818;50.860;4.648;2022-12-29T10:35:39;13.48;;;0.85;;
9559;SDS011;4818;50.860;4.648;2022-12-29T10:38:33;8.93;;;0.85;;
9559;SDS011;4818;50.860;4.648;2022-12-29T10:41:18;9.02;;;0.60;;
9559;SDS011;4818;50.860;4.648;2022-12-29T10:43:48;4.32;;;0.30;;
9559;SDS011;4818;50.860;4.648;2022-12-29T10:46:36;10.57;;;0.88;;
9559;SDS011;4818;50.860;4.648;2022-12-29T10:51:32;12.43;;;0.60;;
9559;SDS011;4818;50.860;4.648;2022-12-29T10:56:33;11.55;;;0.70;;
9559;SDS011;4818;50.860;4.648;2022-12-29T10:59:35;10.23;;;1.60;;
9559;SDS011;4818;50.860;4.648;2022-12-29T11:04:43;8.45;;;0.73;;
9559;SDS011;4818;50.860;4.648;2022-12-29T11:07:12;6.55;;;0.90;;
9559;SDS011;4818;50.860;4.648;2022-12-29T11:09:42;8.50;;;0.65;;
9559;SDS011;4818;50.860;4.648;2022-12-29T11:12:21;4.10;;;0.50;;
9559;SDS011;4818;50.860;4.648;2022-12-29T11:15:00;5.63;;;0.70;;
9559;SDS011;4818;50.860;4.648;2022-12-29T11:17:27;7.25;;;0.68;;
9559;SDS011;4818;50.860;4.648;2022-12-29T11:19:59;9.07;;;0.60;;
9559;SDS011;4818;50.860;4.648;2022-12-29T11:22:27;13.15;;;0.73;;
9559;SDS011;4818;50.860;4.648;2022-12-29T11:24:54;12.30;;;0.80;;
9559;SDS011;4818;50.860;4.648;2022-12-29T11:27:24;9.02;;;0.50;;
9559;SDS011;4818;50.860;4.648;2022-12-29T11:29:53;13.63;;;1.35;;
9559;SDS011;4818;50.860;4.648;2022-12-29T11:32:26;6.35;;;1.00;;
9559;SDS011;4818;50.860;4.648;2022-12-29T11:34:55;5.60;;;0.60;;
9559;SDS011;4818;50.860;4.648;2022-12-29T11:39:56;11.55;;;0.95;;
9559;SDS011;4818;50.860;4.648;2022-12-29T11:42:29;7.35;;;0.63;;
9559;SDS011;4818;50.860;4.648;2022-12-29T11:44:57;7.00;;;0.73;;
9559;SDS011;4818;50.860;4.648;2022-12-29T11:47:38;12.55;;;0.82;;
9559;SDS011;4818;50.860;4.648;2022-12-29T11:50:06;9.77;;;1.33;;
9559;SDS011;4818;50.860;4.648;2022-12-29T11:52:36;5.78;;;0.50;;
9559;SDS011;4818;50.860;4.648;2022-12-29T11:55:16;13.30;;;0.65;;
9559;SDS011;4818;50.860;4.648;2022-12-29T11:57:43;11.38;;;1.10;;
9559;SDS011;4818;50.860;4.648;2022-12-29T12:00:25;9.18;;;0.95;;
9559;SDS011;4818;50.860;4.648;2022-12-29T12:03:01;9.18;;;0.60;;
9559;SDS011;4818;50.860;4.648;2022-12-29T12:11:42;9.82;;;0.73;;
9559;SDS011;4818;50.860;4.648;2022-12-29T12:14:07;10.90;;;0.60;;
9559;SDS011;4818;50.860;4.648;2022-12-29T12:16:41;10.80;;;0.50;;
9559;SDS011;4818;50.860;4.648;2022-12-29T12:22:44;9.13;;;0.90;;
9559;SDS011;4818;50.860;4.648;2022-12-29T12:30:24;12.32;;;0.60;;
9559;SDS011;4818;50.860;4.648;2022-12-29T12:49:56;7.25;;;0.70;;
9559;SDS011;4818;50.860;4.648;2022-12-29T13:21:55;5.82;;;0.70;;
9559;SDS011;4818;50.860;4.648;2022-12-29T13:27:23;7.90;;;0.43;;
9559;SDS011;4818;50.860;4.648;2022-12-29T13:29:57;4.82;;;0.60;;
9559;SDS011;4818;50.860;4.648;2022-12-29T13:35:15;11.00;;;0.77;;
9559;SDS011;4818;50.860;4.648;2022-12-29T13:37:48;7.43;;;0.70;;
9559;SDS011;4818;50.860;4.648;2022-12-29T13:40:17;7.25;;;0.50;;
9559;SDS011;4818;50.860;4.648;2022-12-29T13:42:51;10.00;;;0.90;;
9559;SDS011;4818;50.860;4.648;2022-12-29T13:45:25;6.78;;;0.60;;
9559;SDS011;4818;50.860;4.648;2022-12-29T13:48:00;9.57;;;0.55;;
9559;SDS011;4818;50.860;4.648;2022-12-29T13:50:59;9.25;;;1.00;;
9559;SDS011;4818;50.860;4.648;2022-12-29T13:53:54;5.43;;;0.57;;
9559;SDS011;4818;50.860;4.648;2022-12-29T13:56:44;8.07;;;0.93;;
9559;SDS011;4818;50.860;4.648;2022-12-29T13:59:21;8.40;;;0.60;;
9559;SDS011;4818;50.860;4.648;2022-12-29T14:01:53;7.43;;;0.60;;
9559;SDS011;4818;50.860;4.648;2022-12-29T14:04:24;8.48;;;0.57;;
9559;SDS011;4818;50.860;4.648;2022-12-29T14:07:04;8.25;;;0.98;;
9559;SDS011;4818;50.860;4.648;2022-12-29T14:15:14;7.75;;;0.95;;
9559;SDS011;4818;50.860;4.648;2022-12-29T14:17:42;13.43;;;1.38;;
9559;SDS011;4818;50.860;4.648;2022-12-29T14:20:46;13.52;;;1.38;;
9559;SDS011;4818;50.860;4.648;2022-12-29T14:28:36;6.40;;;0.95;;
9559;SDS011;4818;50.860;4.648;2022-12-29T14:39:41;15.93;;;1.35;;
9559;SDS011;4818;50.860;4.648;2022-12-29T14:47:48;9.68;;;0.80;;
9559;SDS011;4818;50.860;4.648;2022-12-29T14:50:22;10.25;;;0.50;;
9559;SDS011;4818;50.860;4.648;2022-12-29T14:52:54;13.95;;;0.77;;
9559;SDS011;4818;50.860;4.648;2022-12-29T14:58:07;9.68;;;0.88;;
9559;SDS011;4818;50.860;4.648;2022-12-29T15:00:52;9.57;;;0.70;;
9559;SDS011;4818;50.860;4.648;2022-12-29T15:03:34;11.23;;;1.45;;
9559;SDS011;4818;50.860;4.648;2022-12-29T15:08:35;11.02;;;0.55;;
9559;SDS011;4818;50.860;4.648;2022-12-29T15:11:11;12.00;;;1.13;;
9559;SDS011;4818;50.860;4.648;2022-12-29T15:16:29;12.00;;;0.73;;
9559;SDS011;4818;50.860;4.648;2022-12-29T15:19:05;8.32;;;0.60;;
9559;SDS011;4818;50.860;4.648;2022-12-29T15:21:46;4.70;;;0.60;;
9559;SDS011;4818;50.860;4.648;2022-12-29T15:24:13;5.30;;;0.60;;
9559;SDS011;4818;50.860;4.648;2022-12-29T15:26:41;11.38;;;0.80;;
9559;SDS011;4818;50.860;4.648;2022-12-29T15:32:00;7.43;;;0.35;;
9559;SDS011;4818;50.860;4.648;2022-12-29T15:34:38;3.92;;;0.40;;
9559;SDS011;4818;50.860;4.648;2022-12-29T15:37:06;2.53;;;0.30;;
9559;SDS011;4818;50.860;4.648;2022-12-29T15:39:35;3.10;;;0.30;;
9559;SDS011;4818;50.860;4.648;2022-12-29T15:44:43;5.63;;;0.35;;
9559;SDS011;4818;50.860;4.648;2022-12-29T15:47:15;2.55;;;0.30;;
9559;SDS011;4818;50.860;4.648;2022-12-29T15:49:55;5.00;;;0.60;;
9559;SDS011;4818;50.860;4.648;2022-12-29T15:52:29;4.78;;;0.30;;
9559;SDS011;4818;50.860;4.648;2022-12-29T15:55:00;6.20;;;0.40;;
9559;SDS011;4818;50.860;4.648;2022-12-29T15:57:36;8.25;;;0.60;;
9559;SDS011;4818;50.860;4.648;2022-12-29T16:00:20;3.70;;;0.50;;
9559;SDS011;4818;50.860;4.648;2022-12-29T16:02:51;8.77;;;1.13;;
9559;SDS011;4818;50.860;4.648;2022-12-29T16:05:21;10.38;;;0.57;;
9559;SDS011;4818;50.860;4.648;2022-12-29T16:07:51;10.45;;;0.70;;
9559;SDS011;4818;50.860;4.648;2022-12-29T16:10:37;9.07;;;0.60;;
9559;SDS011;4818;50.860;4.648;2022-12-29T16:15:38;12.75;;;0.38;;
9559;SDS011;4818;50.860;4.648;2022-12-29T16:18:15;11.18;;;0.40;;
9559;SDS011;4818;50.860;4.648;2022-12-29T16:20:46;21.65;;;1.55;;
9559;SDS011;4818;50.860;4.648;2022-12-29T16:23:16;7.38;;;1.08;;
9559;SDS011;4818;50.860;4.648;2022-12-29T16:25:44;13.13;;;1.08;;
9559;SDS011;4818;50.860;4.648;2022-12-29T16:28:19;11.48;;;1.42;;
9559;SDS011;4818;50.860;4.648;2022-12-29T16:31:02;8.40;;;1.13;;
9559;SDS011;4818;50.860;4.648;2022-12-29T16:33:40;15.20;;;1.25;;
9559;SDS011;4818;50.860;4.648;2022-12-29T16:39:34;15.05;;;1.45;;
9559;SDS011;4818;50.860;4.648;2022-12-29T16:41:55;12.15;;;1.00;;
9559;SDS011;4818;50.860;4.648;2022-12-29T16:44:22;14.93;;;1.17;;
9559;SDS011;4818;50.860;4.648;2022-12-29T16:46:57;22.15;;;1.58;;
9559;SDS011;4818;50.860;4.648;2022-12-29T16:49:24;11.45;;;1.02;;
9559;SDS011;4818;50.860;4.648;2022-12-29T16:51:52;10.85;;;1.05;;
9559;SDS011;4818;50.860;4.648;2022-12-29T16:54:34;17.30;;;1.25;;
9559;SDS011;4818;50.860;4.648;2022-12-29T16:57:05;18.38;;;1.27;;
9559;SDS011;4818;50.860;4.648;2022-12-29T17:01:59;17.13;;;1.17;;
9559;SDS011;4818;50.860;4.648;2022-12-29T17:04:49;7.20;;;0.65;;
9559;SDS011;4818;50.860;4.648;2022-12-29T17:07:21;11.75;;;1.13;;
9559;SDS011;4818;50.860;4.648;2022-12-29T17:09:48;12.10;;;0.82;;
9559;SDS011;4818;50.860;4.648;2022-12-29T17:12:19;18.85;;;0.75;;
9559;SDS011;4818;50.860;4.648;2022-12-29T17:14:59;9.07;;;0.77;;
9559;SDS011;4818;50.860;4.648;2022-12-29T17:17:32;10.77;;;0.98;;
9559;SDS011;4818;50.860;4.648;2022-12-29T17:20:03;14.57;;;0.98;;
9559;SDS011;4818;50.860;4.648;2022-12-29T17:22:31;12.68;;;1.30;;
9559;SDS011;4818;50.860;4.648;2022-12-29T17:27:37;25.98;;;1.38;;
9559;SDS011;4818;50.860;4.648;2022-12-29T17:33:04;11.30;;;1.10;;
9559;SDS011;4818;50.860;4.648;2022-12-29T17:35:38;8.30;;;1.02;;
9559;SDS011;4818;50.860;4.648;2022-12-29T17:38:18;14.87;;;2.13;;
9559;SDS011;4818;50.860;4.648;2022-12-29T17:40:44;13.73;;;2.38;;
9559;SDS011;4818;50.860;4.648;2022-12-29T17:43:12;8.35;;;0.60;;
9559;SDS011;4818;50.860;4.648;2022-12-29T17:45:57;13.30;;;0.90;;
9559;SDS011;4818;50.860;4.648;2022-12-29T17:48:27;5.40;;;0.80;;
9559;SDS011;4818;50.860;4.648;2022-12-29T17:51:17;16.92;;;1.75;;
9559;SDS011;4818;50.860;4.648;2022-12-29T17:53:47;16.75;;;1.05;;
9559;SDS011;4818;50.860;4.648;2022-12-29T17:56:19;9.20;;;1.63;;
9559;SDS011;4818;50.860;4.648;2022-12-29T17:58:45;10.05;;;0.50;;
9559;SDS011;4818;50.860;4.648;2022-12-29T18:01:13;15.27;;;1.42;;
9559;SDS011;4818;50.860;4.648;2022-12-29T18:03:46;15.15;;;0.95;;
9559;SDS011;4818;50.860;4.648;2022-12-29T18:06:15;13.85;;;1.15;;
9559;SDS011;4818;50.860;4.648;2022-12-29T18:08:44;5.90;;;0.47;;
9559;SDS011;4818;50.860;4.648;2022-12-29T18:11:19;8.40;;;1.23;;
9559;SDS011;4818;50.860;4.648;2022-12-29T18:13:49;7.18;;;0.57;;
9559;SDS011;4818;50.860;4.648;2022-12-29T18:16:25;11.23;;;1.05;;
9559;SDS011;4818;50.860;4.648;2022-12-29T18:19:12;10.93;;;1.15;;
9559;SDS011;4818;50.860;4.648;2022-12-29T18:21:44;10.38;;;1.15;;
9559;SDS011;4818;50.860;4.648;2022-12-29T18:24:20;7.68;;;0.98;;
9559;SDS011;4818;50.860;4.648;2022-12-29T18:26:57;5.35;;;0.95;;
9559;SDS011;4818;50.860;4.648;2022-12-29T18:29:24;7.35;;;1.38;;
9559;SDS011;4818;50.860;4.648;2022-12-29T18:31:59;10.18;;;1.02;;
9559;SDS011;4818;50.860;4.648;2022-12-29T18:34:58;8.55;;;0.85;;
9559;SDS011;4818;50.860;4.648;2022-12-29T18:37:27;14.30;;;1.05;;
9559;SDS011;4818;50.860;4.648;2022-12-29T18:39:57;8.63;;;0.85;;
9559;SDS011;4818;50.860;4.648;2022-12-29T18:42:26;14.48;;;1.10;;
9559;SDS011;4818;50.860;4.648;2022-12-29T18:44:52;12.70;;;1.13;;
9559;SDS011;4818;50.860;4.648;2022-12-29T18:47:20;12.80;;;1.10;;
9559;SDS011;4818;50.860;4.648;2022-12-29T18:49:46;6.97;;;0.63;;
9559;SDS011;4818;50.860;4.648;2022-12-29T18:52:13;14.82;;;1.15;;
9559;SDS011;4818;50.860;4.648;2022-12-29T18:54:42;12.63;;;0.90;;
9559;SDS011;4818;50.860;4.648;2022-12-29T18:59:58;17.48;;;2.42;;
9559;SDS011;4818;50.860;4.648;2022-12-29T19:02:31;15.15;;;1.00;;
9559;SDS011;4818;50.860;4.648;2022-12-29T19:05:00;10.70;;;0.70;;
9559;SDS011;4818;50.860;4.648;2022-12-29T19:10:02;12.65;;;0.88;;
9559;SDS011;4818;50.860;4.648;2022-12-29T19:12:28;11.43;;;0.88;;
9559;SDS011;4818;50.860;4.648;2022-12-29T19:14:55;12.85;;;1.42;;
9559;SDS011;4818;50.860;4.648;2022-12-29T19:17:29;13.88;;;1.15;;
9559;SDS011;4818;50.860;4.648;2022-12-29T19:20:05;12.85;;;1.00;;
9559;SDS011;4818;50.860;4.648;2022-12-29T19:22:40;12.32;;;1.35;;
9559;SDS011;4818;50.860;4.648;2022-12-29T19:25:07;10.30;;;1.15;;
9559;SDS011;4818;50.860;4.648;2022-12-29T19:27:33;6.10;;;0.63;;
9559;SDS011;4818;50.860;4.648;2022-12-29T19:29:59;7.22;;;0.73;;
9559;SDS011;4818;50.860;4.648;2022-12-29T19:32:28;10.00;;;0.73;;
9559;SDS011;4818;50.860;4.648;2022-12-29T19:34:58;9.38;;;0.70;;
9559;SDS011;4818;50.860;4.648;2022-12-29T19:37:25;9.10;;;1.23;;
9559;SDS011;4818;50.860;4.648;2022-12-29T19:39:51;9.75;;;0.75;;
9559;SDS011;4818;50.860;4.648;2022-12-29T19:42:21;12.57;;;0.90;;
9559;SDS011;4818;50.860;4.648;2022-12-29T19:44:54;11.30;;;0.68;;
9559;SDS011;4818;50.860;4.648;2022-12-29T19:47:29;16.33;;;1.55;;
9559;SDS011;4818;50.860;4.648;2022-12-29T19:49:56;16.15;;;1.90;;